sensor_id;sensor_type;location;lat;lon;timestamp;P1;durP1;ratioP1;P2;durP2;ratioP2
69542;SDS011;56762;49.494;11.768;2022-08-03T00:00:32;4.25;;;2.20;;
69542;SDS011;56762;49.494;11.768;2022-08-03T00:03:00;3.50;;;2.40;;
69542;SDS011;56762;49.494;11.768;2022-08-03T00:05:30;4.55;;;2.63;;
69542;SDS011;56762;49.494;11.768;2022-08-03T00:07:59;3.83;;;2.40;;
69542;SDS011;56762;49.494;11.768;2022-08-03T00:10:27;5.47;;;2.57;;
69542;SDS011;56762;49.494;11.768;2022-08-03T00:13:02;4.30;;;2.67;;
69542;SDS011;56762;49.494;11.768;2022-08-03T00:15:30;3.60;;;2.38;;
69542;SDS011;56762;49.494;11.768;2022-08-03T00:17:58;3.92;;;2.50;;
69542;SDS011;56762;49.494;11.768;2022-08-03T00:20:26;4.30;;;2.33;;
69542;SDS011;56762;49.494;11.768;2022-08-03T00:22:54;3.40;;;2.20;;
69542;SDS011;56762;49.494;11.768;2022-08-03T00:25:22;4.97;;;3.00;;
69542;SDS011;56762;49.494;11.768;2022-08-03T00:27:50;3.85;;;2.67;;
69542;SDS011;56762;49.494;11.768;2022-08-03T00:30:20;4.00;;;2.65;;
69542;SDS011;56762;49.494;11.768;2022-08-03T00:32:52;4.28;;;2.72;;
69542;SDS011;56762;49.494;11.768;2022-08-03T00:35:20;4.50;;;2.40;;
69542;SDS011;56762;49.494;11.768;2022-08-03T00:38:08;4.00;;;2.40;;
69542;SDS011;56762;49.494;11.768;2022-08-03T00:40:35;4.10;;;2.72;;
69542;SDS011;56762;49.494;11.768;2022-08-03T00:43:04;4.38;;;2.60;;
69542;SDS011;56762;49.494;11.768;2022-08-03T00:45:37;4.47;;;2.65;;
69542;SDS011;56762;49.494;11.768;2022-08-03T00:48:07;6.47;;;2.87;;
69542;SDS011;56762;49.494;11.768;2022-08-03T00:50:57;5.07;;;2.50;;
69542;SDS011;56762;49.494;11.768;2022-08-03T00:53:25;4.03;;;2.45;;
69542;SDS011;56762;49.494;11.768;2022-08-03T00:55:54;4.35;;;2.63;;
69542;SDS011;56762;49.494;11.768;2022-08-03T00:58:22;4.72;;;2.38;;
69542;SDS011;56762;49.494;11.768;2022-08-03T01:00:51;4.20;;;2.40;;
69542;SDS011;56762;49.494;11.768;2022-08-03T01:03:19;3.67;;;2.40;;
69542;SDS011;56762;49.494;11.768;2022-08-03T01:05:48;5.22;;;2.33;;
69542;SDS011;56762;49.494;11.768;2022-08-03T01:08:29;3.72;;;2.40;;
69542;SDS011;56762;49.494;11.768;2022-08-03T01:11:05;5.03;;;2.95;;
69542;SDS011;56762;49.494;11.768;2022-08-03T01:13:40;3.17;;;2.17;;
69542;SDS011;56762;49.494;11.768;2022-08-03T01:16:37;4.78;;;2.70;;
69542;SDS011;56762;49.494;11.768;2022-08-03T01:19:14;5.22;;;3.10;;
69542;SDS011;56762;49.494;11.768;2022-08-03T01:21:58;4.22;;;2.90;;
69542;SDS011;56762;49.494;11.768;2022-08-03T01:24:43;5.18;;;2.95;;
69542;SDS011;56762;49.494;11.768;2022-08-03T01:27:25;3.97;;;2.30;;
69542;SDS011;56762;49.494;11.768;2022-08-03T01:30:00;3.97;;;2.58;;
69542;SDS011;56762;49.494;11.768;2022-08-03T01:32:33;4.57;;;2.83;;
69542;SDS011;56762;49.494;11.768;2022-08-03T01:35:27;4.07;;;2.53;;
69542;SDS011;56762;49.494;11.768;2022-08-03T01:38:04;4.47;;;2.58;;
69542;SDS011;56762;49.494;11.768;2022-08-03T01:40:36;4.57;;;3.10;;
69542;SDS011;56762;49.494;11.768;2022-08-03T01:43:07;4.97;;;2.50;;
69542;SDS011;56762;49.494;11.768;2022-08-03T01:45:38;4.55;;;3.05;;
69542;SDS011;56762;49.494;11.768;2022-08-03T01:48:08;4.18;;;2.50;;
69542;SDS011;56762;49.494;11.768;2022-08-03T01:50:38;5.78;;;3.22;;
69542;SDS011;56762;49.494;11.768;2022-08-03T01:53:07;4.83;;;2.93;;
69542;SDS011;56762;49.494;11.768;2022-08-03T01:55:36;4.95;;;2.92;;
69542;SDS011;56762;49.494;11.768;2022-08-03T01:58:05;4.40;;;2.78;;
69542;SDS011;56762;49.494;11.768;2022-08-03T02:00:35;4.70;;;2.90;;
69542;SDS011;56762;49.494;11.768;2022-08-03T02:03:06;4.72;;;2.55;;
69542;SDS011;56762;49.494;11.768;2022-08-03T02:05:36;5.20;;;3.10;;
69542;SDS011;56762;49.494;11.768;2022-08-03T02:08:06;4.53;;;2.88;;
69542;SDS011;56762;49.494;11.768;2022-08-03T02:10:35;5.07;;;2.78;;
69542;SDS011;56762;49.494;11.768;2022-08-03T02:13:04;3.90;;;2.38;;
69542;SDS011;56762;49.494;11.768;2022-08-03T02:15:34;5.50;;;2.72;;
69542;SDS011;56762;49.494;11.768;2022-08-03T02:18:07;4.40;;;2.60;;
69542;SDS011;56762;49.494;11.768;2022-08-03T02:20:36;3.80;;;2.60;;
69542;SDS011;56762;49.494;11.768;2022-08-03T02:23:06;5.47;;;3.30;;
69542;SDS011;56762;49.494;11.768;2022-08-03T02:25:35;4.25;;;2.78;;
69542;SDS011;56762;49.494;11.768;2022-08-03T02:28:11;4.30;;;3.10;;
69542;SDS011;56762;49.494;11.768;2022-08-03T02:30:44;3.73;;;2.87;;
69542;SDS011;56762;49.494;11.768;2022-08-03T02:33:22;4.28;;;2.33;;
69542;SDS011;56762;49.494;11.768;2022-08-03T02:35:53;5.05;;;2.90;;
69542;SDS011;56762;49.494;11.768;2022-08-03T02:38:25;4.72;;;2.75;;
69542;SDS011;56762;49.494;11.768;2022-08-03T02:40:57;4.30;;;2.58;;
69542;SDS011;56762;49.494;11.768;2022-08-03T02:43:27;4.87;;;2.93;;
69542;SDS011;56762;49.494;11.768;2022-08-03T02:46:18;4.20;;;2.80;;
69542;SDS011;56762;49.494;11.768;2022-08-03T02:48:50;3.50;;;2.35;;
69542;SDS011;56762;49.494;11.768;2022-08-03T02:51:20;4.53;;;2.72;;
69542;SDS011;56762;49.494;11.768;2022-08-03T02:53:50;4.68;;;2.63;;
69542;SDS011;56762;49.494;11.768;2022-08-03T02:56:19;5.03;;;2.70;;
69542;SDS011;56762;49.494;11.768;2022-08-03T02:58:48;4.03;;;2.83;;
69542;SDS011;56762;49.494;11.768;2022-08-03T03:01:17;3.53;;;2.50;;
69542;SDS011;56762;49.494;11.768;2022-08-03T03:03:47;5.28;;;2.40;;
69542;SDS011;56762;49.494;11.768;2022-08-03T03:06:18;4.93;;;2.65;;
69542;SDS011;56762;49.494;11.768;2022-08-03T03:08:50;4.20;;;2.50;;
69542;SDS011;56762;49.494;11.768;2022-08-03T03:11:24;5.43;;;2.67;;
69542;SDS011;56762;49.494;11.768;2022-08-03T03:13:53;4.88;;;3.20;;
69542;SDS011;56762;49.494;11.768;2022-08-03T03:16:23;4.00;;;2.70;;
69542;SDS011;56762;49.494;11.768;2022-08-03T03:18:54;6.72;;;3.03;;
69542;SDS011;56762;49.494;11.768;2022-08-03T03:21:23;4.80;;;2.90;;
69542;SDS011;56762;49.494;11.768;2022-08-03T03:23:52;4.78;;;2.85;;
69542;SDS011;56762;49.494;11.768;2022-08-03T03:26:21;4.85;;;3.20;;
69542;SDS011;56762;49.494;11.768;2022-08-03T03:28:49;3.97;;;2.85;;
69542;SDS011;56762;49.494;11.768;2022-08-03T03:31:17;5.75;;;3.70;;
69542;SDS011;56762;49.494;11.768;2022-08-03T03:33:45;5.67;;;3.40;;
69542;SDS011;56762;49.494;11.768;2022-08-03T03:36:15;6.30;;;3.70;;
69542;SDS011;56762;49.494;11.768;2022-08-03T03:38:44;6.18;;;3.63;;
69542;SDS011;56762;49.494;11.768;2022-08-03T03:41:12;6.07;;;3.55;;
69542;SDS011;56762;49.494;11.768;2022-08-03T03:43:40;5.82;;;3.45;;
69542;SDS011;56762;49.494;11.768;2022-08-03T03:46:10;6.17;;;3.10;;
69542;SDS011;56762;49.494;11.768;2022-08-03T03:48:39;5.30;;;3.45;;
69542;SDS011;56762;49.494;11.768;2022-08-03T03:51:07;4.38;;;3.22;;
69542;SDS011;56762;49.494;11.768;2022-08-03T03:53:37;5.45;;;3.15;;
69542;SDS011;56762;49.494;11.768;2022-08-03T03:56:05;4.95;;;3.55;;
69542;SDS011;56762;49.494;11.768;2022-08-03T03:58:32;5.23;;;3.10;;
69542;SDS011;56762;49.494;11.768;2022-08-03T04:01:00;4.57;;;3.28;;
69542;SDS011;56762;49.494;11.768;2022-08-03T04:03:28;4.65;;;3.17;;
69542;SDS011;56762;49.494;11.768;2022-08-03T04:05:56;4.63;;;3.03;;
69542;SDS011;56762;49.494;11.768;2022-08-03T04:08:43;5.05;;;3.42;;
69542;SDS011;56762;49.494;11.768;2022-08-03T04:11:30;6.20;;;3.30;;
69542;SDS011;56762;49.494;11.768;2022-08-03T04:14:04;4.72;;;3.38;;
69542;SDS011;56762;49.494;11.768;2022-08-03T04:16:35;5.53;;;3.35;;
69542;SDS011;56762;49.494;11.768;2022-08-03T04:19:09;5.35;;;3.42;;
69542;SDS011;56762;49.494;11.768;2022-08-03T04:21:46;8.43;;;4.13;;
69542;SDS011;56762;49.494;11.768;2022-08-03T04:24:23;5.27;;;3.67;;
69542;SDS011;56762;49.494;11.768;2022-08-03T04:26:53;6.15;;;3.47;;
69542;SDS011;56762;49.494;11.768;2022-08-03T04:29:22;5.22;;;4.05;;
69542;SDS011;56762;49.494;11.768;2022-08-03T04:31:52;8.23;;;3.78;;
69542;SDS011;56762;49.494;11.768;2022-08-03T04:34:22;5.43;;;3.70;;
69542;SDS011;56762;49.494;11.768;2022-08-03T04:36:51;5.00;;;3.23;;
69542;SDS011;56762;49.494;11.768;2022-08-03T04:39:26;6.05;;;3.72;;
69542;SDS011;56762;49.494;11.768;2022-08-03T04:41:57;6.43;;;3.50;;
69542;SDS011;56762;49.494;11.768;2022-08-03T04:44:34;4.72;;;2.85;;
69542;SDS011;56762;49.494;11.768;2022-08-03T04:47:03;6.57;;;3.70;;
69542;SDS011;56762;49.494;11.768;2022-08-03T04:49:32;5.60;;;3.90;;
69542;SDS011;56762;49.494;11.768;2022-08-03T04:52:02;5.30;;;3.40;;
69542;SDS011;56762;49.494;11.768;2022-08-03T04:54:39;5.25;;;3.30;;
69542;SDS011;56762;49.494;11.768;2022-08-03T04:57:14;4.65;;;3.10;;
69542;SDS011;56762;49.494;11.768;2022-08-03T04:59:47;5.95;;;3.42;;
69542;SDS011;56762;49.494;11.768;2022-08-03T05:02:23;5.17;;;3.53;;
69542;SDS011;56762;49.494;11.768;2022-08-03T05:04:51;4.90;;;3.08;;
69542;SDS011;56762;49.494;11.768;2022-08-03T05:07:19;6.57;;;3.30;;
69542;SDS011;56762;49.494;11.768;2022-08-03T05:09:51;5.72;;;3.97;;
69542;SDS011;56762;49.494;11.768;2022-08-03T05:12:28;4.80;;;3.40;;
69542;SDS011;56762;49.494;11.768;2022-08-03T05:14:58;6.00;;;3.90;;
69542;SDS011;56762;49.494;11.768;2022-08-03T05:17:26;7.50;;;4.60;;
69542;SDS011;56762;49.494;11.768;2022-08-03T05:19:55;6.35;;;4.05;;
69542;SDS011;56762;49.494;11.768;2022-08-03T05:22:23;10.18;;;6.20;;
69542;SDS011;56762;49.494;11.768;2022-08-03T05:24:52;11.10;;;6.35;;
69542;SDS011;56762;49.494;11.768;2022-08-03T05:27:20;10.70;;;7.10;;
69542;SDS011;56762;49.494;11.768;2022-08-03T05:29:48;15.38;;;8.18;;
69542;SDS011;56762;49.494;11.768;2022-08-03T05:32:16;13.43;;;8.35;;
69542;SDS011;56762;49.494;11.768;2022-08-03T05:34:44;15.30;;;8.48;;
69542;SDS011;56762;49.494;11.768;2022-08-03T05:37:12;17.15;;;9.88;;
69542;SDS011;56762;49.494;11.768;2022-08-03T05:39:40;19.00;;;10.87;;
69542;SDS011;56762;49.494;11.768;2022-08-03T05:42:09;18.50;;;9.63;;
69542;SDS011;56762;49.494;11.768;2022-08-03T05:44:37;18.40;;;10.55;;
69542;SDS011;56762;49.494;11.768;2022-08-03T05:47:07;20.55;;;12.35;;
69542;SDS011;56762;49.494;11.768;2022-08-03T05:49:35;21.88;;;13.27;;
69542;SDS011;56762;49.494;11.768;2022-08-03T05:52:03;21.17;;;12.13;;
69542;SDS011;56762;49.494;11.768;2022-08-03T05:54:43;19.63;;;10.98;;
69542;SDS011;56762;49.494;11.768;2022-08-03T05:57:24;16.33;;;10.60;;
69542;SDS011;56762;49.494;11.768;2022-08-03T05:59:52;16.50;;;10.05;;
69542;SDS011;56762;49.494;11.768;2022-08-03T06:02:24;15.10;;;9.13;;
69542;SDS011;56762;49.494;11.768;2022-08-03T06:04:52;13.90;;;8.50;;
69542;SDS011;56762;49.494;11.768;2022-08-03T06:07:20;13.95;;;8.52;;
69542;SDS011;56762;49.494;11.768;2022-08-03T06:09:48;12.45;;;8.27;;
69542;SDS011;56762;49.494;11.768;2022-08-03T06:12:37;12.80;;;8.48;;
69542;SDS011;56762;49.494;11.768;2022-08-03T06:15:07;16.65;;;10.10;;
69542;SDS011;56762;49.494;11.768;2022-08-03T06:17:43;14.17;;;8.80;;
69542;SDS011;56762;49.494;11.768;2022-08-03T06:20:12;11.90;;;7.70;;
69542;SDS011;56762;49.494;11.768;2022-08-03T06:22:42;9.68;;;7.10;;
69542;SDS011;56762;49.494;11.768;2022-08-03T06:25:16;11.77;;;8.10;;
69542;SDS011;56762;49.494;11.768;2022-08-03T06:27:48;10.85;;;7.20;;
69542;SDS011;56762;49.494;11.768;2022-08-03T06:30:16;10.23;;;6.60;;
69542;SDS011;56762;49.494;11.768;2022-08-03T06:32:46;10.80;;;6.78;;
69542;SDS011;56762;49.494;11.768;2022-08-03T06:35:17;7.53;;;5.50;;
69542;SDS011;56762;49.494;11.768;2022-08-03T06:37:46;6.78;;;4.10;;
69542;SDS011;56762;49.494;11.768;2022-08-03T06:40:16;4.55;;;3.30;;
69542;SDS011;56762;49.494;11.768;2022-08-03T06:42:51;9.13;;;3.20;;
69542;SDS011;56762;49.494;11.768;2022-08-03T06:45:18;4.80;;;3.10;;
69542;SDS011;56762;49.494;11.768;2022-08-03T06:47:46;4.63;;;2.95;;
69542;SDS011;56762;49.494;11.768;2022-08-03T06:50:25;4.97;;;3.22;;
69542;SDS011;56762;49.494;11.768;2022-08-03T06:52:53;4.45;;;2.83;;
69542;SDS011;56762;49.494;11.768;2022-08-03T06:55:21;4.30;;;2.80;;
69542;SDS011;56762;49.494;11.768;2022-08-03T06:57:49;7.18;;;2.95;;
69542;SDS011;56762;49.494;11.768;2022-08-03T07:00:18;6.07;;;3.15;;
69542;SDS011;56762;49.494;11.768;2022-08-03T07:02:46;5.07;;;3.15;;
69542;SDS011;56762;49.494;11.768;2022-08-03T07:05:18;4.63;;;3.10;;
69542;SDS011;56762;49.494;11.768;2022-08-03T07:07:49;4.50;;;2.77;;
69542;SDS011;56762;49.494;11.768;2022-08-03T07:10:16;7.45;;;3.08;;
69542;SDS011;56762;49.494;11.768;2022-08-03T07:12:44;4.93;;;2.75;;
69542;SDS011;56762;49.494;11.768;2022-08-03T07:15:22;3.70;;;2.38;;
69542;SDS011;56762;49.494;11.768;2022-08-03T07:18:11;3.53;;;1.83;;
69542;SDS011;56762;49.494;11.768;2022-08-03T07:20:39;3.93;;;2.23;;
69542;SDS011;56762;49.494;11.768;2022-08-03T07:23:07;2.53;;;1.88;;
69542;SDS011;56762;49.494;11.768;2022-08-03T07:25:44;3.53;;;1.98;;
69542;SDS011;56762;49.494;11.768;2022-08-03T07:28:12;4.47;;;2.50;;
69542;SDS011;56762;49.494;11.768;2022-08-03T07:30:41;2.97;;;1.83;;
69542;SDS011;56762;49.494;11.768;2022-08-03T07:33:08;3.40;;;2.27;;
69542;SDS011;56762;49.494;11.768;2022-08-03T07:35:36;3.03;;;2.17;;
69542;SDS011;56762;49.494;11.768;2022-08-03T07:38:05;4.10;;;2.20;;
69542;SDS011;56762;49.494;11.768;2022-08-03T07:40:33;2.78;;;1.90;;
69542;SDS011;56762;49.494;11.768;2022-08-03T07:43:01;2.97;;;2.20;;
69542;SDS011;56762;49.494;11.768;2022-08-03T07:45:30;3.23;;;2.03;;
69542;SDS011;56762;49.494;11.768;2022-08-03T07:47:59;4.10;;;2.40;;
69542;SDS011;56762;49.494;11.768;2022-08-03T07:50:27;5.18;;;2.47;;
69542;SDS011;56762;49.494;11.768;2022-08-03T07:52:55;3.30;;;2.20;;
69542;SDS011;56762;49.494;11.768;2022-08-03T07:55:23;3.55;;;2.30;;
69542;SDS011;56762;49.494;11.768;2022-08-03T07:58:00;4.37;;;2.53;;
69542;SDS011;56762;49.494;11.768;2022-08-03T08:00:31;3.08;;;1.90;;
69542;SDS011;56762;49.494;11.768;2022-08-03T08:03:01;3.17;;;2.10;;
69542;SDS011;56762;49.494;11.768;2022-08-03T08:05:29;3.58;;;1.98;;
69542;SDS011;56762;49.494;11.768;2022-08-03T08:07:56;3.70;;;2.35;;
69542;SDS011;56762;49.494;11.768;2022-08-03T08:10:25;3.47;;;2.00;;
69542;SDS011;56762;49.494;11.768;2022-08-03T08:12:53;3.38;;;2.42;;
69542;SDS011;56762;49.494;11.768;2022-08-03T08:15:23;2.88;;;2.00;;
69542;SDS011;56762;49.494;11.768;2022-08-03T08:17:51;3.03;;;1.77;;
69542;SDS011;56762;49.494;11.768;2022-08-03T08:20:22;2.97;;;1.90;;
69542;SDS011;56762;49.494;11.768;2022-08-03T08:22:56;3.50;;;2.07;;
69542;SDS011;56762;49.494;11.768;2022-08-03T08:25:26;2.55;;;1.60;;
69542;SDS011;56762;49.494;11.768;2022-08-03T08:27:55;3.22;;;2.13;;
69542;SDS011;56762;49.494;11.768;2022-08-03T08:30:43;2.83;;;1.58;;
69542;SDS011;56762;49.494;11.768;2022-08-03T08:33:11;2.30;;;1.80;;
69542;SDS011;56762;49.494;11.768;2022-08-03T08:35:51;3.37;;;1.90;;
69542;SDS011;56762;49.494;11.768;2022-08-03T08:38:20;3.58;;;1.40;;
69542;SDS011;56762;49.494;11.768;2022-08-03T08:40:48;2.53;;;1.60;;
69542;SDS011;56762;49.494;11.768;2022-08-03T08:43:16;2.75;;;1.60;;
69542;SDS011;56762;49.494;11.768;2022-08-03T08:45:44;3.03;;;1.70;;
69542;SDS011;56762;49.494;11.768;2022-08-03T08:48:16;1.90;;;1.40;;
69542;SDS011;56762;49.494;11.768;2022-08-03T08:50:52;3.65;;;2.22;;
69542;SDS011;56762;49.494;11.768;2022-08-03T08:53:20;3.17;;;1.70;;
69542;SDS011;56762;49.494;11.768;2022-08-03T08:55:52;2.65;;;1.33;;
69542;SDS011;56762;49.494;11.768;2022-08-03T08:58:26;2.65;;;1.50;;
69542;SDS011;56762;49.494;11.768;2022-08-03T09:00:56;3.40;;;1.60;;
69542;SDS011;56762;49.494;11.768;2022-08-03T09:03:24;2.70;;;1.50;;
69542;SDS011;56762;49.494;11.768;2022-08-03T09:05:57;4.70;;;1.30;;
69542;SDS011;56762;49.494;11.768;2022-08-03T09:08:27;2.10;;;1.17;;
69542;SDS011;56762;49.494;11.768;2022-08-03T09:10:55;2.03;;;1.50;;
69542;SDS011;56762;49.494;11.768;2022-08-03T09:13:23;1.30;;;0.90;;
69542;SDS011;56762;49.494;11.768;2022-08-03T09:18:38;1.85;;;1.13;;
69542;SDS011;56762;49.494;11.768;2022-08-03T09:21:15;2.10;;;1.00;;
69542;SDS011;56762;49.494;11.768;2022-08-03T09:24:03;2.22;;;1.20;;
69542;SDS011;56762;49.494;11.768;2022-08-03T09:26:52;1.63;;;0.90;;
69542;SDS011;56762;49.494;11.768;2022-08-03T09:29:20;3.13;;;1.13;;
69542;SDS011;56762;49.494;11.768;2022-08-03T09:31:49;1.38;;;0.68;;
69542;SDS011;56762;49.494;11.768;2022-08-03T09:34:27;2.53;;;1.33;;
69542;SDS011;56762;49.494;11.768;2022-08-03T09:36:58;2.08;;;0.80;;
69542;SDS011;56762;49.494;11.768;2022-08-03T09:39:28;1.30;;;0.90;;
69542;SDS011;56762;49.494;11.768;2022-08-03T09:42:09;2.33;;;1.17;;
69542;SDS011;56762;49.494;11.768;2022-08-03T09:44:41;1.75;;;0.93;;
69542;SDS011;56762;49.494;11.768;2022-08-03T09:47:10;3.20;;;1.80;;
69542;SDS011;56762;49.494;11.768;2022-08-03T09:49:39;2.30;;;1.17;;
69542;SDS011;56762;49.494;11.768;2022-08-03T09:52:13;1.70;;;1.00;;
69542;SDS011;56762;49.494;11.768;2022-08-03T09:55:06;2.17;;;1.20;;
69542;SDS011;56762;49.494;11.768;2022-08-03T09:58:02;1.33;;;1.00;;
69542;SDS011;56762;49.494;11.768;2022-08-03T10:00:31;1.33;;;0.90;;
69542;SDS011;56762;49.494;11.768;2022-08-03T10:03:19;2.03;;;1.10;;
69542;SDS011;56762;49.494;11.768;2022-08-03T10:05:47;2.50;;;0.90;;
69542;SDS011;56762;49.494;11.768;2022-08-03T10:08:17;2.05;;;1.10;;
69542;SDS011;56762;49.494;11.768;2022-08-03T10:10:46;2.45;;;1.00;;
69542;SDS011;56762;49.494;11.768;2022-08-03T10:13:16;2.05;;;1.00;;
69542;SDS011;56762;49.494;11.768;2022-08-03T10:15:45;2.20;;;1.17;;
69542;SDS011;56762;49.494;11.768;2022-08-03T10:18:33;1.90;;;0.80;;
69542;SDS011;56762;49.494;11.768;2022-08-03T10:21:02;1.45;;;0.77;;
69542;SDS011;56762;49.494;11.768;2022-08-03T10:23:38;1.48;;;0.95;;
69542;SDS011;56762;49.494;11.768;2022-08-03T10:26:08;2.50;;;0.93;;
69542;SDS011;56762;49.494;11.768;2022-08-03T10:28:40;1.25;;;0.80;;
69542;SDS011;56762;49.494;11.768;2022-08-03T10:31:11;2.60;;;0.90;;
69542;SDS011;56762;49.494;11.768;2022-08-03T10:33:41;1.95;;;1.10;;
69542;SDS011;56762;49.494;11.768;2022-08-03T10:36:18;2.30;;;1.05;;
69542;SDS011;56762;49.494;11.768;2022-08-03T10:38:51;1.65;;;1.08;;
69542;SDS011;56762;49.494;11.768;2022-08-03T10:41:25;1.42;;;0.90;;
69542;SDS011;56762;49.494;11.768;2022-08-03T10:43:57;1.90;;;0.90;;
69542;SDS011;56762;49.494;11.768;2022-08-03T10:46:29;2.00;;;1.10;;
69542;SDS011;56762;49.494;11.768;2022-08-03T10:48:57;2.97;;;1.00;;
69542;SDS011;56762;49.494;11.768;2022-08-03T10:51:26;1.52;;;0.90;;
69542;SDS011;56762;49.494;11.768;2022-08-03T10:53:59;2.08;;;0.95;;
69542;SDS011;56762;49.494;11.768;2022-08-03T10:56:37;2.67;;;1.10;;
69542;SDS011;56762;49.494;11.768;2022-08-03T11:05:32;1.35;;;0.98;;
69542;SDS011;56762;49.494;11.768;2022-08-03T11:11:00;1.87;;;1.40;;
69542;SDS011;56762;49.494;11.768;2022-08-03T11:13:29;1.40;;;1.10;;
69542;SDS011;56762;49.494;11.768;2022-08-03T11:16:00;1.40;;;0.90;;
69542;SDS011;56762;49.494;11.768;2022-08-03T11:18:34;1.70;;;1.05;;
69542;SDS011;56762;49.494;11.768;2022-08-03T11:21:02;2.67;;;1.15;;
69542;SDS011;56762;49.494;11.768;2022-08-03T11:23:40;1.63;;;0.97;;
69542;SDS011;56762;49.494;11.768;2022-08-03T11:26:31;3.05;;;1.20;;
69542;SDS011;56762;49.494;11.768;2022-08-03T11:31:55;3.72;;;1.10;;
69542;SDS011;56762;49.494;11.768;2022-08-03T11:34:23;2.90;;;1.23;;
69542;SDS011;56762;49.494;11.768;2022-08-03T11:39:48;1.67;;;1.20;;
69542;SDS011;56762;49.494;11.768;2022-08-03T11:45:07;2.55;;;1.02;;
69542;SDS011;56762;49.494;11.768;2022-08-03T11:47:37;2.22;;;1.02;;
69542;SDS011;56762;49.494;11.768;2022-08-03T11:50:16;1.80;;;1.07;;
69542;SDS011;56762;49.494;11.768;2022-08-03T11:52:45;1.60;;;1.00;;
69542;SDS011;56762;49.494;11.768;2022-08-03T11:55:14;1.55;;;1.10;;
69542;SDS011;56762;49.494;11.768;2022-08-03T11:57:47;1.67;;;1.10;;
69542;SDS011;56762;49.494;11.768;2022-08-03T12:00:35;2.13;;;0.90;;
69542;SDS011;56762;49.494;11.768;2022-08-03T12:03:04;2.10;;;0.97;;
69542;SDS011;56762;49.494;11.768;2022-08-03T12:05:33;2.22;;;1.23;;
69542;SDS011;56762;49.494;11.768;2022-08-03T12:08:18;1.83;;;0.82;;
69542;SDS011;56762;49.494;11.768;2022-08-03T12:10:57;2.67;;;1.00;;
69542;SDS011;56762;49.494;11.768;2022-08-03T12:13:27;1.20;;;0.95;;
69542;SDS011;56762;49.494;11.768;2022-08-03T12:16:24;2.50;;;1.10;;
69542;SDS011;56762;49.494;11.768;2022-08-03T12:18:54;2.17;;;0.95;;
69542;SDS011;56762;49.494;11.768;2022-08-03T12:21:23;1.25;;;0.70;;
69542;SDS011;56762;49.494;11.768;2022-08-03T12:23:55;1.60;;;1.05;;
69542;SDS011;56762;49.494;11.768;2022-08-03T12:26:24;1.73;;;0.80;;
69542;SDS011;56762;49.494;11.768;2022-08-03T12:28:54;1.40;;;1.00;;
69542;SDS011;56762;49.494;11.768;2022-08-03T12:31:22;2.65;;;1.15;;
69542;SDS011;56762;49.494;11.768;2022-08-03T12:33:54;1.67;;;0.90;;
69542;SDS011;56762;49.494;11.768;2022-08-03T12:36:24;3.22;;;1.00;;
69542;SDS011;56762;49.494;11.768;2022-08-03T12:38:53;2.72;;;1.08;;
69542;SDS011;56762;49.494;11.768;2022-08-03T12:41:26;1.73;;;1.10;;
69542;SDS011;56762;49.494;11.768;2022-08-03T12:43:57;2.35;;;1.02;;
69542;SDS011;56762;49.494;11.768;2022-08-03T12:46:28;1.48;;;0.95;;
69542;SDS011;56762;49.494;11.768;2022-08-03T12:49:02;1.58;;;1.00;;
69542;SDS011;56762;49.494;11.768;2022-08-03T12:51:33;1.30;;;0.80;;
69542;SDS011;56762;49.494;11.768;2022-08-03T12:54:04;2.20;;;1.10;;
69542;SDS011;56762;49.494;11.768;2022-08-03T12:56:32;1.80;;;1.13;;
69542;SDS011;56762;49.494;11.768;2022-08-03T13:02:00;1.38;;;0.90;;
69542;SDS011;56762;49.494;11.768;2022-08-03T13:04:34;2.53;;;1.08;;
69542;SDS011;56762;49.494;11.768;2022-08-03T13:07:03;2.07;;;0.80;;
69542;SDS011;56762;49.494;11.768;2022-08-03T13:09:40;1.73;;;1.00;;
69542;SDS011;56762;49.494;11.768;2022-08-03T13:12:09;2.72;;;0.95;;
69542;SDS011;56762;49.494;11.768;2022-08-03T13:14:39;1.55;;;1.00;;
69542;SDS011;56762;49.494;11.768;2022-08-03T13:17:08;3.05;;;1.20;;
69542;SDS011;56762;49.494;11.768;2022-08-03T13:19:36;1.80;;;1.20;;
69542;SDS011;56762;49.494;11.768;2022-08-03T13:22:11;1.33;;;0.93;;
69542;SDS011;56762;49.494;11.768;2022-08-03T13:24:40;1.63;;;0.85;;
69542;SDS011;56762;49.494;11.768;2022-08-03T13:27:08;1.38;;;1.08;;
69542;SDS011;56762;49.494;11.768;2022-08-03T13:29:57;1.52;;;0.90;;
69542;SDS011;56762;49.494;11.768;2022-08-03T13:32:25;1.73;;;1.10;;
69542;SDS011;56762;49.494;11.768;2022-08-03T13:34:53;1.27;;;0.75;;
69542;SDS011;56762;49.494;11.768;2022-08-03T13:37:21;1.48;;;0.95;;
69542;SDS011;56762;49.494;11.768;2022-08-03T13:39:49;2.45;;;1.13;;
69542;SDS011;56762;49.494;11.768;2022-08-03T13:42:25;1.90;;;0.88;;
69542;SDS011;56762;49.494;11.768;2022-08-03T13:44:54;3.03;;;0.90;;
69542;SDS011;56762;49.494;11.768;2022-08-03T13:47:23;2.05;;;0.85;;
69542;SDS011;56762;49.494;11.768;2022-08-03T13:49:51;2.00;;;1.02;;
69542;SDS011;56762;49.494;11.768;2022-08-03T13:52:27;1.30;;;0.90;;
69542;SDS011;56762;49.494;11.768;2022-08-03T13:54:55;1.30;;;0.90;;
69542;SDS011;56762;49.494;11.768;2022-08-03T13:57:24;2.03;;;0.90;;
69542;SDS011;56762;49.494;11.768;2022-08-03T14:00:12;1.55;;;0.80;;
69542;SDS011;56762;49.494;11.768;2022-08-03T14:02:54;2.22;;;0.98;;
69542;SDS011;56762;49.494;11.768;2022-08-03T14:05:40;1.40;;;0.82;;
69542;SDS011;56762;49.494;11.768;2022-08-03T14:08:08;2.58;;;1.10;;
69542;SDS011;56762;49.494;11.768;2022-08-03T14:10:37;2.83;;;1.40;;
69542;SDS011;56762;49.494;11.768;2022-08-03T14:13:09;2.90;;;1.42;;
69542;SDS011;56762;49.494;11.768;2022-08-03T14:15:37;1.50;;;1.00;;
69542;SDS011;56762;49.494;11.768;2022-08-03T14:18:17;3.45;;;2.13;;
69542;SDS011;56762;49.494;11.768;2022-08-03T14:20:58;2.88;;;1.60;;
69542;SDS011;56762;49.494;11.768;2022-08-03T14:23:32;3.77;;;1.80;;
69542;SDS011;56762;49.494;11.768;2022-08-03T14:26:00;24.35;;;10.23;;
69542;SDS011;56762;49.494;11.768;2022-08-03T14:28:28;4.03;;;2.10;;
69542;SDS011;56762;49.494;11.768;2022-08-03T14:30:55;1.58;;;0.95;;
69542;SDS011;56762;49.494;11.768;2022-08-03T14:33:25;1.60;;;1.10;;
69542;SDS011;56762;49.494;11.768;2022-08-03T14:35:53;2.17;;;1.10;;
69542;SDS011;56762;49.494;11.768;2022-08-03T14:38:22;2.63;;;1.40;;
69542;SDS011;56762;49.494;11.768;2022-08-03T14:40:50;1.65;;;1.10;;
69542;SDS011;56762;49.494;11.768;2022-08-03T14:43:18;1.65;;;1.15;;
69542;SDS011;56762;49.494;11.768;2022-08-03T14:45:46;1.95;;;1.23;;
69542;SDS011;56762;49.494;11.768;2022-08-03T14:48:17;2.23;;;1.33;;
69542;SDS011;56762;49.494;11.768;2022-08-03T14:51:06;1.70;;;0.90;;
69542;SDS011;56762;49.494;11.768;2022-08-03T14:53:34;1.63;;;1.08;;
69542;SDS011;56762;49.494;11.768;2022-08-03T14:56:01;1.50;;;1.10;;
69542;SDS011;56762;49.494;11.768;2022-08-03T14:58:35;2.60;;;1.23;;
69542;SDS011;56762;49.494;11.768;2022-08-03T15:01:03;1.57;;;0.93;;
69542;SDS011;56762;49.494;11.768;2022-08-03T15:03:52;1.35;;;1.02;;
69542;SDS011;56762;49.494;11.768;2022-08-03T15:06:21;2.10;;;1.08;;
69542;SDS011;56762;49.494;11.768;2022-08-03T15:08:49;1.95;;;1.30;;
69542;SDS011;56762;49.494;11.768;2022-08-03T15:11:37;1.83;;;1.10;;
69542;SDS011;56762;49.494;11.768;2022-08-03T15:14:05;2.73;;;1.20;;
69542;SDS011;56762;49.494;11.768;2022-08-03T15:16:35;1.42;;;1.20;;
69542;SDS011;56762;49.494;11.768;2022-08-03T15:19:03;1.73;;;0.95;;
69542;SDS011;56762;49.494;11.768;2022-08-03T15:21:52;1.38;;;1.02;;
69542;SDS011;56762;49.494;11.768;2022-08-03T15:24:20;2.03;;;1.30;;